sensor_id;sensor_type;location;lat;lon;timestamp;P1;durP1;ratioP1;P2;durP2;ratioP2
44430;SDS011;30135;47.866;-4.222;2022-10-18T00:00:26;2.20;;;1.40;;
44430;SDS011;30135;47.866;-4.222;2022-10-18T00:02:53;4.43;;;1.42;;
44430;SDS011;30135;47.866;-4.222;2022-10-18T00:05:20;3.25;;;1.10;;
44430;SDS011;30135;47.866;-4.222;2022-10-18T00:07:46;2.60;;;1.15;;
44430;SDS011;30135;47.866;-4.222;2022-10-18T00:10:13;3.17;;;1.85;;
44430;SDS011;30135;47.866;-4.222;2022-10-18T00:12:40;4.38;;;1.88;;
44430;SDS011;30135;47.866;-4.222;2022-10-18T00:15:07;4.90;;;1.08;;
44430;SDS011;30135;47.866;-4.222;2022-10-18T00:17:36;1.80;;;1.20;;
44430;SDS011;30135;47.866;-4.222;2022-10-18T00:20:04;10.15;;;1.70;;
44430;SDS011;30135;47.866;-4.222;2022-10-18T00:22:36;2.17;;;1.10;;
44430;SDS011;30135;47.866;-4.222;2022-10-18T00:25:04;3.20;;;1.77;;
44430;SDS011;30135;47.866;-4.222;2022-10-18T00:27:32;2.45;;;1.10;;
44430;SDS011;30135;47.866;-4.222;2022-10-18T00:29:59;11.05;;;1.13;;
44430;SDS011;30135;47.866;-4.222;2022-10-18T00:32:28;4.93;;;1.70;;
44430;SDS011;30135;47.866;-4.222;2022-10-18T00:35:05;1.85;;;1.10;;
44430;SDS011;30135;47.866;-4.222;2022-10-18T00:37:34;4.88;;;1.90;;
44430;SDS011;30135;47.866;-4.222;2022-10-18T00:40:01;5.53;;;1.25;;
44430;SDS011;30135;47.866;-4.222;2022-10-18T00:42:32;11.25;;;1.55;;
44430;SDS011;30135;47.866;-4.222;2022-10-18T00:47:46;9.40;;;1.30;;
44430;SDS011;30135;47.866;-4.222;2022-10-18T00:50:20;3.38;;;1.00;;
44430;SDS011;30135;47.866;-4.222;2022-10-18T00:52:49;2.97;;;1.02;;
44430;SDS011;30135;47.866;-4.222;2022-10-18T00:55:24;6.05;;;0.93;;
44430;SDS011;30135;47.866;-4.222;2022-10-18T00:57:51;2.95;;;1.00;;
44430;SDS011;30135;47.866;-4.222;2022-10-18T01:00:19;6.22;;;0.98;;
44430;SDS011;30135;47.866;-4.222;2022-10-18T01:02:46;1.85;;;0.75;;
44430;SDS011;30135;47.866;-4.222;2022-10-18T01:05:14;4.25;;;0.98;;
44430;SDS011;30135;47.866;-4.222;2022-10-18T01:11:12;5.03;;;1.35;;
44430;SDS011;30135;47.866;-4.222;2022-10-18T01:32:27;4.90;;;0.73;;
44430;SDS011;30135;47.866;-4.222;2022-10-18T01:35:06;1.85;;;0.93;;
44430;SDS011;30135;47.866;-4.222;2022-10-18T01:37:41;0.40;;;0.30;;
44430;SDS011;30135;47.866;-4.222;2022-10-18T01:42:39;4.03;;;0.65;;
44430;SDS011;30135;47.866;-4.222;2022-10-18T01:45:06;3.05;;;0.52;;
44430;SDS011;30135;47.866;-4.222;2022-10-18T01:47:35;3.30;;;1.20;;
44430;SDS011;30135;47.866;-4.222;2022-10-18T01:50:03;2.85;;;0.52;;
44430;SDS011;30135;47.866;-4.222;2022-10-18T01:52:31;4.30;;;1.37;;
44430;SDS011;30135;47.866;-4.222;2022-10-18T01:54:58;0.70;;;0.60;;
44430;SDS011;30135;47.866;-4.222;2022-10-18T02:00:22;1.70;;;0.45;;
44430;SDS011;30135;47.866;-4.222;2022-10-18T02:03:08;6.03;;;0.77;;
44430;SDS011;30135;47.866;-4.222;2022-10-18T02:05:53;5.38;;;0.60;;
44430;SDS011;30135;47.866;-4.222;2022-10-18T02:08:31;6.68;;;0.40;;
44430;SDS011;30135;47.866;-4.222;2022-10-18T02:11:07;3.17;;;0.30;;
44430;SDS011;30135;47.866;-4.222;2022-10-18T02:13:44;1.48;;;0.47;;
44430;SDS011;30135;47.866;-4.222;2022-10-18T02:16:38;4.68;;;0.30;;
44430;SDS011;30135;47.866;-4.222;2022-10-18T02:19:21;1.88;;;0.40;;
44430;SDS011;30135;47.866;-4.222;2022-10-18T02:22:01;1.65;;;0.20;;
44430;SDS011;30135;47.866;-4.222;2022-10-18T02:24:32;8.13;;;0.50;;
44430;SDS011;30135;47.866;-4.222;2022-10-18T02:27:06;2.05;;;0.47;;
44430;SDS011;30135;47.866;-4.222;2022-10-18T02:29:33;2.88;;;0.47;;
44430;SDS011;30135;47.866;-4.222;2022-10-18T02:32:10;1.48;;;0.30;;
44430;SDS011;30135;47.866;-4.222;2022-10-18T02:37:37;3.83;;;0.30;;
44430;SDS011;30135;47.866;-4.222;2022-10-18T02:40:06;0.32;;;0.10;;
44430;SDS011;30135;47.866;-4.222;2022-10-18T02:42:36;6.78;;;1.05;;
44430;SDS011;30135;47.866;-4.222;2022-10-18T02:45:14;0.63;;;0.20;;
44430;SDS011;30135;47.866;-4.222;2022-10-18T02:47:43;2.63;;;0.95;;
44430;SDS011;30135;47.866;-4.222;2022-10-18T02:50:11;2.45;;;0.25;;
44430;SDS011;30135;47.866;-4.222;2022-10-18T02:52:39;0.30;;;0.20;;
44430;SDS011;30135;47.866;-4.222;2022-10-18T02:55:07;0.75;;;0.20;;
44430;SDS011;30135;47.866;-4.222;2022-10-18T02:57:35;2.10;;;0.68;;
44430;SDS011;30135;47.866;-4.222;2022-10-18T03:00:04;3.45;;;0.30;;
44430;SDS011;30135;47.866;-4.222;2022-10-18T03:02:32;0.63;;;0.20;;
44430;SDS011;30135;47.866;-4.222;2022-10-18T03:04:59;6.68;;;0.22;;
44430;SDS011;30135;47.866;-4.222;2022-10-18T03:07:26;2.75;;;0.43;;
44430;SDS011;30135;47.866;-4.222;2022-10-18T03:09:53;8.07;;;0.40;;
44430;SDS011;30135;47.866;-4.222;2022-10-18T03:12:20;1.80;;;0.30;;
44430;SDS011;30135;47.866;-4.222;2022-10-18T03:14:53;5.82;;;0.20;;
44430;SDS011;30135;47.866;-4.222;2022-10-18T03:17:21;9.55;;;0.30;;
44430;SDS011;30135;47.866;-4.222;2022-10-18T03:19:47;7.53;;;0.20;;
44430;SDS011;30135;47.866;-4.222;2022-10-18T03:22:14;7.70;;;0.63;;
44430;SDS011;30135;47.866;-4.222;2022-10-18T03:24:42;1.58;;;0.10;;
44430;SDS011;30135;47.866;-4.222;2022-10-18T03:27:08;0.77;;;0.22;;
44430;SDS011;30135;47.866;-4.222;2022-10-18T03:29:34;4.35;;;0.50;;
44430;SDS011;30135;47.866;-4.222;2022-10-18T03:32:01;3.72;;;0.30;;
44430;SDS011;30135;47.866;-4.222;2022-10-18T03:34:31;0.55;;;0.20;;
44430;SDS011;30135;47.866;-4.222;2022-10-18T03:36:57;3.85;;;0.20;;
44430;SDS011;30135;47.866;-4.222;2022-10-18T03:39:23;0.52;;;0.28;;
44430;SDS011;30135;47.866;-4.222;2022-10-18T03:41:49;2.80;;;0.30;;
44430;SDS011;30135;47.866;-4.222;2022-10-18T03:44:17;1.90;;;0.40;;
44430;SDS011;30135;47.866;-4.222;2022-10-18T03:46:43;0.60;;;0.30;;
44430;SDS011;30135;47.866;-4.222;2022-10-18T03:49:10;3.45;;;0.30;;
44430;SDS011;30135;47.866;-4.222;2022-10-18T03:51:36;1.60;;;0.20;;
44430;SDS011;30135;47.866;-4.222;2022-10-18T03:54:02;2.95;;;0.40;;
44430;SDS011;30135;47.866;-4.222;2022-10-18T03:56:29;1.38;;;0.20;;
44430;SDS011;30135;47.866;-4.222;2022-10-18T03:58:55;0.85;;;0.28;;
44430;SDS011;30135;47.866;-4.222;2022-10-18T04:01:21;5.28;;;0.30;;
44430;SDS011;30135;47.866;-4.222;2022-10-18T04:03:49;6.40;;;0.40;;
44430;SDS011;30135;47.866;-4.222;2022-10-18T04:06:16;3.08;;;0.55;;
44430;SDS011;30135;47.866;-4.222;2022-10-18T04:08:43;0.60;;;0.30;;
44430;SDS011;30135;47.866;-4.222;2022-10-18T04:11:09;0.80;;;0.20;;
44430;SDS011;30135;47.866;-4.222;2022-10-18T04:13:38;7.28;;;0.40;;
44430;SDS011;30135;47.866;-4.222;2022-10-18T04:16:05;0.55;;;0.22;;
44430;SDS011;30135;47.866;-4.222;2022-10-18T04:18:31;3.58;;;0.30;;
44430;SDS011;30135;47.866;-4.222;2022-10-18T04:20:57;1.20;;;0.38;;
44430;SDS011;30135;47.866;-4.222;2022-10-18T04:23:24;10.68;;;5.15;;
44430;SDS011;30135;47.866;-4.222;2022-10-18T04:25:50;12.65;;;6.20;;
44430;SDS011;30135;47.866;-4.222;2022-10-18T04:28:24;9.77;;;3.25;;
44430;SDS011;30135;47.866;-4.222;2022-10-18T04:30:51;3.42;;;1.55;;
44430;SDS011;30135;47.866;-4.222;2022-10-18T04:33:19;4.65;;;0.65;;
44430;SDS011;30135;47.866;-4.222;2022-10-18T04:35:46;9.40;;;0.80;;
44430;SDS011;30135;47.866;-4.222;2022-10-18T04:38:17;2.90;;;0.43;;
44430;SDS011;30135;47.866;-4.222;2022-10-18T04:40:44;1.92;;;1.00;;
44430;SDS011;30135;47.866;-4.222;2022-10-18T04:43:11;4.13;;;0.98;;
44430;SDS011;30135;47.866;-4.222;2022-10-18T04:45:38;2.80;;;0.50;;
44430;SDS011;30135;47.866;-4.222;2022-10-18T04:48:04;0.43;;;0.20;;
44430;SDS011;30135;47.866;-4.222;2022-10-18T04:50:33;3.40;;;0.63;;
44430;SDS011;30135;47.866;-4.222;2022-10-18T04:53:00;4.60;;;0.47;;
44430;SDS011;30135;47.866;-4.222;2022-10-18T04:55:27;2.47;;;0.50;;
44430;SDS011;30135;47.866;-4.222;2022-10-18T04:57:53;1.58;;;0.65;;
44430;SDS011;30135;47.866;-4.222;2022-10-18T05:00:20;5.13;;;0.65;;
44430;SDS011;30135;47.866;-4.222;2022-10-18T05:02:46;5.88;;;0.77;;
44430;SDS011;30135;47.866;-4.222;2022-10-18T05:05:12;1.95;;;0.60;;
44430;SDS011;30135;47.866;-4.222;2022-10-18T05:07:41;9.43;;;0.85;;
44430;SDS011;30135;47.866;-4.222;2022-10-18T05:10:07;2.95;;;0.63;;
44430;SDS011;30135;47.866;-4.222;2022-10-18T05:12:34;6.95;;;1.13;;
44430;SDS011;30135;47.866;-4.222;2022-10-18T05:15:01;3.45;;;0.98;;
44430;SDS011;30135;47.866;-4.222;2022-10-18T05:17:28;7.03;;;2.72;;
44430;SDS011;30135;47.866;-4.222;2022-10-18T05:19:59;3.55;;;0.80;;
44430;SDS011;30135;47.866;-4.222;2022-10-18T05:22:28;4.03;;;0.93;;
44430;SDS011;30135;47.866;-4.222;2022-10-18T05:24:54;10.15;;;1.10;;
44430;SDS011;30135;47.866;-4.222;2022-10-18T05:27:20;7.47;;;1.30;;
44430;SDS011;30135;47.866;-4.222;2022-10-18T05:29:48;10.40;;;1.38;;
44430;SDS011;30135;47.866;-4.222;2022-10-18T05:32:14;10.05;;;1.27;;
44430;SDS011;30135;47.866;-4.222;2022-10-18T05:34:41;3.28;;;0.90;;
44430;SDS011;30135;47.866;-4.222;2022-10-18T05:37:07;7.93;;;0.88;;
44430;SDS011;30135;47.866;-4.222;2022-10-18T05:39:35;10.15;;;1.17;;
44430;SDS011;30135;47.866;-4.222;2022-10-18T05:42:02;6.38;;;1.33;;
44430;SDS011;30135;47.866;-4.222;2022-10-18T05:44:31;9.18;;;1.10;;
44430;SDS011;30135;47.866;-4.222;2022-10-18T05:46:58;5.13;;;1.20;;
44430;SDS011;30135;47.866;-4.222;2022-10-18T05:49:24;2.70;;;1.45;;
44430;SDS011;30135;47.866;-4.222;2022-10-18T05:51:51;3.97;;;1.55;;
44430;SDS011;30135;47.866;-4.222;2022-10-18T05:54:20;6.68;;;1.70;;
44430;SDS011;30135;47.866;-4.222;2022-10-18T05:56:47;3.50;;;1.48;;
44430;SDS011;30135;47.866;-4.222;2022-10-18T05:59:17;4.22;;;1.63;;
44430;SDS011;30135;47.866;-4.222;2022-10-18T06:01:43;7.90;;;1.80;;
44430;SDS011;30135;47.866;-4.222;2022-10-18T06:04:10;8.55;;;2.20;;
44430;SDS011;30135;47.866;-4.222;2022-10-18T06:06:38;3.90;;;2.45;;
44430;SDS011;30135;47.866;-4.222;2022-10-18T06:09:05;8.07;;;2.20;;
44430;SDS011;30135;47.866;-4.222;2022-10-18T06:11:34;6.28;;;2.08;;
44430;SDS011;30135;47.866;-4.222;2022-10-18T06:14:01;3.97;;;2.30;;
44430;SDS011;30135;47.866;-4.222;2022-10-18T06:16:29;7.00;;;2.50;;
44430;SDS011;30135;47.866;-4.222;2022-10-18T06:18:56;6.47;;;2.50;;
44430;SDS011;30135;47.866;-4.222;2022-10-18T06:21:24;6.85;;;2.80;;
44430;SDS011;30135;47.866;-4.222;2022-10-18T06:23:56;5.13;;;2.75;;
44430;SDS011;30135;47.866;-4.222;2022-10-18T06:26:24;10.55;;;3.60;;
44430;SDS011;30135;47.866;-4.222;2022-10-18T06:28:58;6.18;;;2.75;;
44430;SDS011;30135;47.866;-4.222;2022-10-18T06:31:26;9.38;;;2.83;;
44430;SDS011;30135;47.866;-4.222;2022-10-18T06:33:54;14.88;;;4.65;;
44430;SDS011;30135;47.866;-4.222;2022-10-18T06:36:26;9.25;;;3.78;;
44430;SDS011;30135;47.866;-4.222;2022-10-18T06:38:54;9.68;;;3.60;;
44430;SDS011;30135;47.866;-4.222;2022-10-18T06:41:24;10.05;;;2.92;;
44430;SDS011;30135;47.866;-4.222;2022-10-18T06:43:53;16.75;;;3.50;;
44430;SDS011;30135;47.866;-4.222;2022-10-18T06:46:38;11.35;;;4.05;;
44430;SDS011;30135;47.866;-4.222;2022-10-18T06:49:17;10.90;;;3.00;;
44430;SDS011;30135;47.866;-4.222;2022-10-18T06:51:45;16.15;;;3.85;;
44430;SDS011;30135;47.866;-4.222;2022-10-18T06:54:11;6.63;;;3.17;;
44430;SDS011;30135;47.866;-4.222;2022-10-18T06:56:38;14.45;;;4.10;;
44430;SDS011;30135;47.866;-4.222;2022-10-18T06:59:05;10.50;;;3.80;;
44430;SDS011;30135;47.866;-4.222;2022-10-18T07:01:32;7.68;;;3.17;;
44430;SDS011;30135;47.866;-4.222;2022-10-18T07:03:59;9.07;;;3.60;;
44430;SDS011;30135;47.866;-4.222;2022-10-18T07:06:25;13.55;;;3.50;;
44430;SDS011;30135;47.866;-4.222;2022-10-18T07:08:52;7.15;;;3.75;;
44430;SDS011;30135;47.866;-4.222;2022-10-18T07:11:19;13.02;;;4.32;;
44430;SDS011;30135;47.866;-4.222;2022-10-18T07:13:51;7.97;;;3.13;;
44430;SDS011;30135;47.866;-4.222;2022-10-18T07:16:19;8.68;;;3.22;;
44430;SDS011;30135;47.866;-4.222;2022-10-18T07:18:49;13.13;;;4.07;;
44430;SDS011;30135;47.866;-4.222;2022-10-18T07:21:16;10.77;;;4.82;;
44430;SDS011;30135;47.866;-4.222;2022-10-18T07:23:50;8.18;;;3.58;;
44430;SDS011;30135;47.866;-4.222;2022-10-18T07:26:24;8.35;;;4.55;;
44430;SDS011;30135;47.866;-4.222;2022-10-18T07:29:00;9.38;;;3.90;;
44430;SDS011;30135;47.866;-4.222;2022-10-18T07:31:32;10.85;;;4.43;;
44430;SDS011;30135;47.866;-4.222;2022-10-18T07:33:59;10.85;;;4.78;;
44430;SDS011;30135;47.866;-4.222;2022-10-18T07:36:32;8.57;;;4.22;;
44430;SDS011;30135;47.866;-4.222;2022-10-18T07:38:59;10.20;;;4.35;;
44430;SDS011;30135;47.866;-4.222;2022-10-18T07:41:27;11.60;;;3.85;;
44430;SDS011;30135;47.866;-4.222;2022-10-18T07:43:57;16.02;;;4.32;;
44430;SDS011;30135;47.866;-4.222;2022-10-18T07:46:25;9.15;;;4.28;;
44430;SDS011;30135;47.866;-4.222;2022-10-18T07:48:52;11.25;;;4.47;;
44430;SDS011;30135;47.866;-4.222;2022-10-18T07:51:20;13.32;;;4.65;;
44430;SDS011;30135;47.866;-4.222;2022-10-18T07:53:58;9.93;;;3.92;;
44430;SDS011;30135;47.866;-4.222;2022-10-18T07:56:25;11.50;;;4.35;;
44430;SDS011;30135;47.866;-4.222;2022-10-18T07:58:54;10.93;;;4.63;;
44430;SDS011;30135;47.866;-4.222;2022-10-18T08:01:20;11.57;;;4.07;;
44430;SDS011;30135;47.866;-4.222;2022-10-18T08:03:56;13.18;;;3.88;;
44430;SDS011;30135;47.866;-4.222;2022-10-18T08:06:26;16.02;;;3.47;;
44430;SDS011;30135;47.866;-4.222;2022-10-18T08:08:52;12.13;;;3.53;;
44430;SDS011;30135;47.866;-4.222;2022-10-18T08:11:19;7.70;;;3.38;;
44430;SDS011;30135;47.866;-4.222;2022-10-18T08:16:16;7.90;;;3.33;;
44430;SDS011;30135;47.866;-4.222;2022-10-18T08:18:45;7.10;;;4.30;;
44430;SDS011;30135;47.866;-4.222;2022-10-18T08:21:11;18.83;;;3.80;;
44430;SDS011;30135;47.866;-4.222;2022-10-18T08:23:39;9.43;;;4.00;;
44430;SDS011;30135;47.866;-4.222;2022-10-18T08:26:06;7.72;;;3.30;;
44430;SDS011;30135;47.866;-4.222;2022-10-18T08:28:35;10.55;;;3.92;;
44430;SDS011;30135;47.866;-4.222;2022-10-18T08:31:05;9.35;;;3.15;;
44430;SDS011;30135;47.866;-4.222;2022-10-18T08:33:34;13.60;;;3.28;;
44430;SDS011;30135;47.866;-4.222;2022-10-18T08:36:01;11.43;;;3.67;;
44430;SDS011;30135;47.866;-4.222;2022-10-18T08:38:31;8.45;;;3.22;;
44430;SDS011;30135;47.866;-4.222;2022-10-18T08:43:55;13.85;;;3.80;;
44430;SDS011;30135;47.866;-4.222;2022-10-18T08:46:31;8.40;;;3.78;;
44430;SDS011;30135;47.866;-4.222;2022-10-18T08:49:02;9.07;;;3.88;;
44430;SDS011;30135;47.866;-4.222;2022-10-18T08:51:38;8.07;;;3.38;;
44430;SDS011;30135;47.866;-4.222;2022-10-18T08:54:11;13.00;;;3.95;;
44430;SDS011;30135;47.866;-4.222;2022-10-18T08:56:45;14.90;;;3.53;;
44430;SDS011;30135;47.866;-4.222;2022-10-18T08:59:24;10.43;;;3.97;;
44430;SDS011;30135;47.866;-4.222;2022-10-18T09:16:36;5.95;;;2.92;;
44430;SDS011;30135;47.866;-4.222;2022-10-18T09:25:43;9.45;;;3.72;;
44430;SDS011;30135;47.866;-4.222;2022-10-18T09:28:26;17.50;;;3.90;;
44430;SDS011;30135;47.866;-4.222;2022-10-18T09:34:22;14.85;;;3.38;;
44430;SDS011;30135;47.866;-4.222;2022-10-18T09:37:18;11.93;;;3.22;;
44430;SDS011;30135;47.866;-4.222;2022-10-18T09:39:47;5.72;;;2.83;;
44430;SDS011;30135;47.866;-4.222;2022-10-18T09:42:23;10.00;;;3.90;;
44430;SDS011;30135;47.866;-4.222;2022-10-18T09:50:34;10.07;;;3.40;;
44430;SDS011;30135;47.866;-4.222;2022-10-18T09:55:39;16.17;;;3.13;;
44430;SDS011;30135;47.866;-4.222;2022-10-18T09:58:23;17.05;;;2.97;;
44430;SDS011;30135;47.866;-4.222;2022-10-18T10:00:58;12.35;;;3.65;;
44430;SDS011;30135;47.866;-4.222;2022-10-18T10:03:25;7.93;;;3.15;;
44430;SDS011;30135;47.866;-4.222;2022-10-18T10:06:01;13.88;;;3.72;;
44430;SDS011;30135;47.866;-4.222;2022-10-18T10:08:41;7.80;;;3.47;;
44430;SDS011;30135;47.866;-4.222;2022-10-18T10:11:42;11.85;;;3.63;;
44430;SDS011;30135;47.866;-4.222;2022-10-18T10:14:26;9.45;;;3.95;;
44430;SDS011;30135;47.866;-4.222;2022-10-18T10:17:04;17.95;;;4.10;;
44430;SDS011;30135;47.866;-4.222;2022-10-18T10:22:36;10.68;;;3.20;;
44430;SDS011;30135;47.866;-4.222;2022-10-18T10:25:06;8.38;;;3.05;;
44430;SDS011;30135;47.866;-4.222;2022-10-18T10:27:47;10.63;;;3.38;;
44430;SDS011;30135;47.866;-4.222;2022-10-18T10:30:24;8.65;;;3.03;;
44430;SDS011;30135;47.866;-4.222;2022-10-18T10:32:58;12.90;;;3.30;;
44430;SDS011;30135;47.866;-4.222;2022-10-18T10:38:04;17.80;;;2.90;;
44430;SDS011;30135;47.866;-4.222;2022-10-18T10:40:34;10.55;;;3.20;;
44430;SDS011;30135;47.866;-4.222;2022-10-18T10:48:55;10.25;;;2.83;;
44430;SDS011;30135;47.866;-4.222;2022-10-18T10:51:33;10.30;;;3.55;;
44430;SDS011;30135;47.866;-4.222;2022-10-18T10:54:06;11.10;;;3.22;;
44430;SDS011;30135;47.866;-4.222;2022-10-18T10:56:53;9.88;;;2.35;;
44430;SDS011;30135;47.866;-4.222;2022-10-18T10:59:51;9.18;;;2.60;;
44430;SDS011;30135;47.866;-4.222;2022-10-18T11:02:30;10.73;;;2.55;;
44430;SDS011;30135;47.866;-4.222;2022-10-18T11:05:18;11.20;;;2.55;;
44430;SDS011;30135;47.866;-4.222;2022-10-18T11:07:51;13.93;;;3.13;;
44430;SDS011;30135;47.866;-4.222;2022-10-18T11:10:24;7.78;;;2.85;;
44430;SDS011;30135;47.866;-4.222;2022-10-18T11:13:02;7.18;;;2.63;;
44430;SDS011;30135;47.866;-4.222;2022-10-18T11:16:13;11.68;;;3.22;;
44430;SDS011;30135;47.866;-4.222;2022-10-18T11:19:09;11.05;;;2.97;;
44430;SDS011;30135;47.866;-4.222;2022-10-18T11:22:14;12.38;;;2.72;;
44430;SDS011;30135;47.866;-4.222;2022-10-18T11:24:45;18.42;;;3.55;;
44430;SDS011;30135;47.866;-4.222;2022-10-18T11:27:19;14.25;;;3.05;;
44430;SDS011;30135;47.866;-4.222;2022-10-18T11:33:38;19.40;;;2.70;;
44430;SDS011;30135;47.866;-4.222;2022-10-18T11:39:40;12.15;;;2.97;;
44430;SDS011;30135;47.866;-4.222;2022-10-18T11:42:34;14.48;;;2.50;;
44430;SDS011;30135;47.866;-4.222;2022-10-18T11:51:22;9.68;;;2.55;;
44430;SDS011;30135;47.866;-4.222;2022-10-18T12:06:04;4.90;;;3.53;;
44430;SDS011;30135;47.866;-4.222;2022-10-18T12:08:46;7.88;;;2.42;;
44430;SDS011;30135;47.866;-4.222;2022-10-18T12:11:35;13.48;;;2.53;;
44430;SDS011;30135;47.866;-4.222;2022-10-18T12:14:17;8.48;;;2.70;;
44430;SDS011;30135;47.866;-4.222;2022-10-18T12:16:53;8.43;;;1.85;;
44430;SDS011;30135;47.866;-4.222;2022-10-18T12:19:25;9.30;;;2.35;;
44430;SDS011;30135;47.866;-4.222;2022-10-18T12:21:54;12.73;;;2.40;;
44430;SDS011;30135;47.866;-4.222;2022-10-18T12:24:25;10.15;;;2.40;;
44430;SDS011;30135;47.866;-4.222;2022-10-18T12:26:56;10.57;;;2.65;;
44430;SDS011;30135;47.866;-4.222;2022-10-18T12:32:13;12.50;;;2.70;;
44430;SDS011;30135;47.866;-4.222;2022-10-18T12:34:47;9.27;;;2.33;;
44430;SDS011;30135;47.866;-4.222;2022-10-18T12:40:40;6.45;;;2.33;;
44430;SDS011;30135;47.866;-4.222;2022-10-18T12:46:01;10.10;;;3.45;;
44430;SDS011;30135;47.866;-4.222;2022-10-18T12:48:41;7.25;;;2.20;;
44430;SDS011;30135;47.866;-4.222;2022-10-18T12:51:25;9.23;;;3.00;;
44430;SDS011;30135;47.866;-4.222;2022-10-18T12:53:54;12.10;;;2.72;;
44430;SDS011;30135;47.866;-4.222;2022-10-18T12:56:38;9.05;;;2.85;;
44430;SDS011;30135;47.866;-4.222;2022-10-18T13:10:32;11.25;;;2.58;;
44430;SDS011;30135;47.866;-4.222;2022-10-18T13:18:20;11.27;;;2.58;;
44430;SDS011;30135;47.866;-4.222;2022-10-18T13:21:13;14.93;;;3.22;;
44430;SDS011;30135;47.866;-4.222;2022-10-18T13:32:30;8.95;;;2.65;;
44430;SDS011;30135;47.866;-4.222;2022-10-18T13:41:15;5.00;;;2.05;;
44430;SDS011;30135;47.866;-4.222;2022-10-18T14:06:57;7.63;;;1.98;;
44430;SDS011;30135;47.866;-4.222;2022-10-18T14:09:32;29.33;;;2.65;;
44430;SDS011;30135;47.866;-4.222;2022-10-18T14:15:11;16.13;;;3.08;;
44430;SDS011;30135;47.866;-4.222;2022-10-18T14:20:31;11.63;;;2.22;;
44430;SDS011;30135;47.866;-4.222;2022-10-18T14:23:20;7.55;;;1.98;;
44430;SDS011;30135;47.866;-4.222;2022-10-18T14:26:07;6.53;;;1.90;;
44430;SDS011;30135;47.866;-4.222;2022-10-18T14:28:36;8.05;;;2.13;;
44430;SDS011;30135;47.866;-4.222;2022-10-18T14:31:10;13.93;;;3.08;;
44430;SDS011;30135;47.866;-4.222;2022-10-18T14:33:46;12.55;;;2.33;;
44430;SDS011;30135;47.866;-4.222;2022-10-18T14:38:50;8.15;;;2.17;;
44430;SDS011;30135;47.866;-4.222;2022-10-18T14:41:23;13.20;;;2.88;;
44430;SDS011;30135;47.866;-4.222;2022-10-18T14:43:52;13.98;;;1.92;;
44430;SDS011;30135;47.866;-4.222;2022-10-18T14:46:45;9.23;;;1.90;;
44430;SDS011;30135;47.866;-4.222;2022-10-18T14:49:17;11.68;;;1.95;;
44430;SDS011;30135;47.866;-4.222;2022-10-18T14:51:46;9.32;;;2.05;;
44430;SDS011;30135;47.866;-4.222;2022-10-18T14:54:19;9.00;;;2.80;;
44430;SDS011;30135;47.866;-4.222;2022-10-18T14:56:57;7.93;;;2.23;;
44430;SDS011;30135;47.866;-4.222;2022-10-18T14:59:49;15.75;;;2.47;;
44430;SDS011;30135;47.866;-4.222;2022-10-18T15:02:22;8.57;;;2.00;;
44430;SDS011;30135;47.866;-4.222;2022-10-18T15:07:21;8.73;;;3.17;;
44430;SDS011;30135;47.866;-4.222;2022-10-18T15:09:50;7.80;;;2.63;;
44430;SDS011;30135;47.866;-4.222;2022-10-18T15:12:20;12.23;;;2.78;;
44430;SDS011;30135;47.866;-4.222;2022-10-18T15:14:47;8.85;;;1.67;;
44430;SDS011;30135;47.866;-4.222;2022-10-18T15:17:19;21.15;;;2.25;;
44430;SDS011;30135;47.866;-4.222;2022-10-18T15:22:26;15.57;;;2.28;;
44430;SDS011;30135;47.866;-4.222;2022-10-18T15:27:46;6.23;;;1.77;;
44430;SDS011;30135;47.866;-4.222;2022-10-18T15:30:35;11.57;;;2.03;;
44430;SDS011;30135;47.866;-4.222;2022-10-18T15:33:06;4.35;;;1.65;;
44430;SDS011;30135;47.866;-4.222;2022-10-18T15:35:47;7.57;;;1.98;;
44430;SDS011;30135;47.866;-4.222;2022-10-18T15:38:27;7.03;;;2.08;;
44430;SDS011;30135;47.866;-4.222;2022-10-18T15:41:01;8.93;;;3.15;;
44430;SDS011;30135;47.866;-4.222;2022-10-18T15:44:05;10.00;;;2.33;;
44430;SDS011;30135;47.866;-4.222;2022-10-18T15:58:04;18.88;;;3.80;;
44430;SDS011;30135;47.866;-4.222;2022-10-18T16:00:41;8.75;;;1.67;;
44430;SDS011;30135;47.866;-4.222;2022-10-18T16:03:09;11.30;;;2.63;;
44430;SDS011;30135;47.866;-4.222;2022-10-18T16:05:37;9.95;;;2.47;;
44430;SDS011;30135;47.866;-4.222;2022-10-18T16:08:05;6.55;;;2.17;;
44430;SDS011;30135;47.866;-4.222;2022-10-18T16:10:39;5.93;;;1.55;;
44430;SDS011;30135;47.866;-4.222;2022-10-18T16:13:07;4.70;;;2.13;;
44430;SDS011;30135;47.866;-4.222;2022-10-18T16:15:33;5.15;;;2.00;;
44430;SDS011;30135;47.866;-4.222;2022-10-18T16:18:02;3.70;;;1.88;;
44430;SDS011;30135;47.866;-4.222;2022-10-18T16:20:28;8.35;;;2.30;;
44430;SDS011;30135;47.866;-4.222;2022-10-18T16:22:55;9.27;;;2.45;;
44430;SDS011;30135;47.866;-4.222;2022-10-18T16:25:21;8.23;;;2.63;;
44430;SDS011;30135;47.866;-4.222;2022-10-18T16:27:47;18.55;;;2.22;;
44430;SDS011;30135;47.866;-4.222;2022-10-18T16:30:18;10.35;;;2.20;;
44430;SDS011;30135;47.866;-4.222;2022-10-18T16:32:46;8.90;;;2.42;;
44430;SDS011;30135;47.866;-4.222;2022-10-18T16:35:14;8.35;;;2.17;;
44430;SDS011;30135;47.866;-4.222;2022-10-18T16:37:41;10.18;;;1.73;;
44430;SDS011;30135;47.866;-4.222;2022-10-18T16:40:12;16.60;;;2.78;;
44430;SDS011;30135;47.866;-4.222;2022-10-18T16:42:51;17.73;;;2.45;;
44430;SDS011;30135;47.866;-4.222;2022-10-18T16:45:17;12.30;;;2.03;;
44430;SDS011;30135;47.866;-4.222;2022-10-18T16:47:45;6.97;;;2.08;;
44430;SDS011;30135;47.866;-4.222;2022-10-18T16:50:16;7.22;;;2.10;;
44430;SDS011;30135;47.866;-4.222;2022-10-18T16:52:44;8.73;;;2.30;;
44430;SDS011;30135;47.866;-4.222;2022-10-18T16:55:11;13.95;;;2.35;;
44430;SDS011;30135;47.866;-4.222;2022-10-18T16:57:46;14.60;;;2.40;;
44430;SDS011;30135;47.866;-4.222;2022-10-18T17:00:18;7.28;;;2.00;;
44430;SDS011;30135;47.866;-4.222;2022-10-18T17:02:51;12.63;;;2.00;;
44430;SDS011;30135;47.866;-4.222;2022-10-18T17:05:18;11.88;;;2.95;;
44430;SDS011;30135;47.866;-4.222;2022-10-18T17:07:45;9.50;;;2.42;;
44430;SDS011;30135;47.866;-4.222;2022-10-18T17:10:16;42.07;;;4.83;;
44430;SDS011;30135;47.866;-4.222;2022-10-18T17:12:44;16.25;;;3.55;;
44430;SDS011;30135;47.866;-4.222;2022-10-18T17:15:12;10.73;;;2.97;;
44430;SDS011;30135;47.866;-4.222;2022-10-18T17:17:39;10.73;;;2.05;;
44430;SDS011;30135;47.866;-4.222;2022-10-18T17:20:06;11.23;;;2.70;;
44430;SDS011;30135;47.866;-4.222;2022-10-18T17:22:33;14.77;;;3.28;;
44430;SDS011;30135;47.866;-4.222;2022-10-18T17:25:00;7.80;;;2.45;;
44430;SDS011;30135;47.866;-4.222;2022-10-18T17:27:26;12.75;;;3.55;;
44430;SDS011;30135;47.866;-4.222;2022-10-18T17:29:52;6.47;;;2.65;;
44430;SDS011;30135;47.866;-4.222;2022-10-18T17:32:18;10.55;;;2.47;;
44430;SDS011;30135;47.866;-4.222;2022-10-18T17:34:45;10.02;;;2.25;;
44430;SDS011;30135;47.866;-4.222;2022-10-18T17:37:12;4.65;;;2.00;;
44430;SDS011;30135;47.866;-4.222;2022-10-18T17:39:38;7.75;;;2.88;;
44430;SDS011;30135;47.866;-4.222;2022-10-18T17:42:04;19.98;;;3.00;;
44430;SDS011;30135;47.866;-4.222;2022-10-18T17:44:32;12.07;;;4.00;;
44430;SDS011;30135;47.866;-4.222;2022-10-18T17:46:58;9.15;;;2.38;;
44430;SDS011;30135;47.866;-4.222;2022-10-18T17:49:25;12.57;;;2.72;;
44430;SDS011;30135;47.866;-4.222;2022-10-18T17:51:51;12.27;;;2.53;;
44430;SDS011;30135;47.866;-4.222;2022-10-18T17:54:18;6.95;;;2.50;;
44430;SDS011;30135;47.866;-4.222;2022-10-18T17:56:47;11.85;;;3.60;;
44430;SDS011;30135;47.866;-4.222;2022-10-18T17:59:14;9.25;;;3.20;;
44430;SDS011;30135;47.866;-4.222;2022-10-18T18:01:41;18.35;;;2.72;;
44430;SDS011;30135;47.866;-4.222;2022-10-18T18:04:07;14.13;;;2.47;;
44430;SDS011;30135;47.866;-4.222;2022-10-18T18:06:34;6.20;;;2.50;;
44430;SDS011;30135;47.866;-4.222;2022-10-18T18:09:04;7.95;;;2.72;;
44430;SDS011;30135;47.866;-4.222;2022-10-18T18:11:38;12.10;;;1.90;;
44430;SDS011;30135;47.866;-4.222;2022-10-18T18:14:09;17.02;;;2.80;;